Airfield :
LOGIN :

Register | Disclaimer

   EN    FR    IT 

 










Legend :    VFR   Marginal VFR   IFR   Intensive IFR   Very Intensive IFR
Visi :
Ceiling :
>= 8 km
>= 3000ft
5 to 8 km
1000 to 3000 ft
1500m to 5 km
500 to 1000 ft
800 to 1500m
200 to 500 ft
< 800m
< 200 ft
Symbols :   Thunderstorms  Fog  Heavy snow  Heavy precipitations  Wind > 20 kt
SIGMETs :     Misc.  Thunderstorms  Icing  Turbulence  Mountain Waves  Volcanic Ashes







- Airport Elevation : 1260 ft
- IATA code : LDE
- Download approach charts


LFBT - Tarbes / Ossun

CURRENT METAR :
  • 171400Z AUTO 02007KT CAVOK 19/01 Q1020 NOSIG

EXPIRED METARs :
  • 171330Z AUTO 02006KT 350V050 CAVOK 18/03 Q1020 NOSIG
  • 171300Z AUTO 01006KT 340V050 CAVOK 18/02 Q1020 NOSIG
  • 171230Z AUTO 01009KT CAVOK 17/01 Q1020 NOSIG
  • 171200Z AUTO 01008KT 340V050 CAVOK 17/04 Q1021 NOSIG
  • 171130Z AUTO 01006KT CAVOK 18/01 Q1021 NOSIG

TAF TAF LFBT
Valid from the 17 at 12:00 until the 18 at 12:00 UTC


171100Z 1712/1812 03005KT CAVOK
No reported NOTAMs for that airfield.



MET'MAP, your aeronautical weather chart ! - Copyright ORBIFLY December 2007 - Disclaimer

ORBIFLY MET'MAP TEAM :

Programming & Development : Alexandra Zaïnal
Concept & Development : Baudouin d'Aumeries
Co-Development & Prog : Marc-Olivier Méhu
Technical & hardware support : Manuel Goepfert

Contact : metmap@orbifly.com




SOURCES & CREDITS :

   NOAA